Time;durP1;ratioP1;P1;durP2;ratioP2;P2;SDS_P1;SDS_P2;PMS_P1;PMS_P2;Temp;Humidity;BMP_temperature;BMP_pressure;BME280_temperature;BME280_humidity;BME280_pressure;Samples;Min_cycle;Max_cycle;Signal;HPM_P1;HPM_P2
2022/11/28 00:00:11;;;;;;;7.90;6.27;;;;;;;6.84;100.00;100813.16;5285182;28;20387;-78
2022/11/28 00:02:42;;;;;;;9.00;6.37;;;;;;;6.84;100.00;100816.63;5284576;28;20101;-78
2022/11/28 00:05:14;;;;;;;9.57;6.70;;;;;;;6.88;100.00;100817.50;5284578;28;20039;-79
2022/11/28 00:07:45;;;;;;;9.57;5.77;;;;;;;6.88;100.00;100809.72;5283706;28;20029;-79
2022/11/28 00:10:16;;;;;;;11.43;6.37;;;;;;;6.90;100.00;100815.75;5284391;28;20060;-79
2022/11/28 00:12:48;;;;;;;8.27;6.30;;;;;;;6.91;100.00;100809.72;5284479;28;20028;-80
2022/11/28 00:15:19;;;;;;;9.07;5.90;;;;;;;6.93;100.00;100816.63;5284753;28;20078;-80
2022/11/28 00:17:51;;;;;;;7.20;5.50;;;;;;;6.94;100.00;100808.00;5284125;28;20468;-80
2022/11/28 00:20:22;;;;;;;7.27;5.73;;;;;;;6.97;100.00;100806.28;5283981;28;20069;-80
2022/11/28 00:22:53;;;;;;;6.90;5.00;;;;;;;6.97;100.00;100794.19;5284140;28;20049;-80
2022/11/28 00:25:25;;;;;;;7.30;6.10;;;;;;;7.03;100.00;100798.50;5284068;28;20036;-81
2022/11/28 00:27:56;;;;;;;7.70;4.73;;;;;;;7.10;100.00;100802.88;5284117;28;20113;-80
2022/11/28 00:30:27;;;;;;;6.40;4.90;;;;;;;7.10;100.00;100805.47;5284290;28;20519;-81
2022/11/28 00:32:59;;;;;;;8.27;5.20;;;;;;;7.14;100.00;100799.41;5284256;28;20409;-80
2022/11/28 00:35:30;;;;;;;8.13;5.00;;;;;;;7.20;100.00;100790.78;5283900;28;20387;-80
2022/11/28 00:38:02;;;;;;;9.80;4.50;;;;;;;7.21;100.00;100777.81;5283827;28;20476;-80
2022/11/28 00:40:33;;;;;;;6.07;4.50;;;;;;;7.25;100.00;100792.50;5284375;28;20032;-80
2022/11/28 00:43:04;;;;;;;7.07;4.30;;;;;;;7.28;100.00;100787.31;5284204;28;20036;-80
2022/11/28 00:45:36;;;;;;;7.43;4.87;;;;;;;7.28;100.00;100795.09;5284235;28;20036;-80
2022/11/28 00:48:07;;;;;;;6.93;4.77;;;;;;;7.30;100.00;100795.94;5284710;28;20519;-79
2022/11/28 00:50:38;;;;;;;7.30;4.70;;;;;;;7.30;100.00;100782.13;5290343;28;20033;-79
2022/11/28 00:53:10;;;;;;;9.63;4.47;;;;;;;7.29;100.00;100782.97;5300280;28;20399;-79
2022/11/28 00:55:41;;;;;;;9.70;4.60;;;;;;;7.28;100.00;100784.72;5293245;28;20033;-79
2022/11/28 00:58:13;;;;;;;7.67;5.13;;;;;;;7.26;100.00;100778.69;5286640;28;20032;-78
2022/11/28 01:00:44;;;;;;;7.27;5.30;;;;;;;7.24;100.00;100782.97;5285753;28;20036;-79
2022/11/28 01:03:15;;;;;;;7.97;4.97;;;;;;;7.22;100.00;100781.25;5283112;28;20060;-79
2022/11/28 01:05:47;;;;;;;8.10;5.20;;;;;;;7.21;100.00;100790.78;5286239;28;20533;-80
2022/11/28 01:08:18;;;;;;;7.20;6.27;;;;;;;7.22;100.00;100782.13;5288141;28;20454;-79
2022/11/28 01:10:49;;;;;;;7.13;4.43;;;;;;;7.21;100.00;100782.13;5285420;28;20032;-80
2022/11/28 01:13:21;;;;;;;7.83;4.97;;;;;;;7.21;100.00;100783.00;5287728;28;20037;-79
2022/11/28 01:15:52;;;;;;;7.47;5.33;;;;;;;7.21;100.00;100783.00;5285931;28;20036;-79
2022/11/28 01:18:23;;;;;;;7.10;4.97;;;;;;;7.20;100.00;100785.59;5286485;28;20029;-79
2022/11/28 01:20:55;;;;;;;6.63;4.73;;;;;;;7.19;100.00;100782.13;5286524;28;20060;-79
2022/11/28 01:23:26;;;;;;;6.23;4.70;;;;;;;7.19;100.00;100778.66;5287539;28;20049;-79
2022/11/28 01:25:58;;;;;;;7.10;4.47;;;;;;;7.19;100.00;100782.13;5288485;28;20089;-79
2022/11/28 01:28:29;;;;;;;6.60;4.87;;;;;;;7.20;100.00;100778.66;5289691;28;20036;-78
2022/11/28 01:31:13;;;;;;;5.10;4.37;;;;;;;7.21;100.00;100788.19;5293142;28;20040;-76
2022/11/28 01:33:44;;;;;;;6.05;4.68;;;;;;;7.21;100.00;100787.31;5295609;28;20043;-79
2022/11/28 01:36:17;;;;;;;8.53;4.83;;;;;;;7.19;100.00;100784.72;5298506;28;20115;-79
2022/11/28 01:38:49;;;;;;;8.60;4.43;;;;;;;7.17;100.00;100777.81;5289003;28;20033;-78
2022/11/28 01:41:24;;;;;;;7.37;4.40;;;;;;;7.17;100.00;100783.84;5286398;28;20042;-78
2022/11/28 01:44:04;;;;;;;7.97;4.63;;;;;;;7.05;100.00;100784.72;5284116;28;20027;-78
2022/11/28 01:46:36;;;;;;;6.68;4.78;;;;;;;6.98;100.00;100788.13;5283719;28;20028;-78
2022/11/28 01:49:14;;;;;;;7.57;4.90;;;;;;;6.91;100.00;100776.91;5284499;28;20039;-79
2022/11/28 01:51:57;;;;;;;7.15;4.68;;;;;;;6.87;100.00;100774.28;5284692;28;20117;-77
2022/11/28 01:54:30;;;;;;;5.72;4.85;;;;;;;6.85;100.00;100778.59;5283757;28;20036;-79
2022/11/28 01:57:05;;;;;;;7.47;4.75;;;;;;;6.82;100.00;100779.44;5283847;28;20040;-78
2022/11/28 01:59:42;;;;;;;10.02;4.78;;;;;;;6.81;100.00;100780.34;5285644;28;20028;-80
2022/11/28 02:02:28;;;;;;;6.15;4.25;;;;;;;6.81;100.00;100774.28;5288044;28;20038;-80
2022/11/28 02:04:59;;;;;;;8.07;4.20;;;;;;;6.77;100.00;100773.41;5287236;28;20368;-81
2022/11/28 02:07:33;;;;;;;7.83;4.53;;;;;;;6.75;100.00;100770.81;5287157;28;20036;-79
2022/11/28 02:10:11;;;;;;;8.25;4.60;;;;;;;6.75;100.00;100764.78;5285786;28;20078;-80
2022/11/28 02:13:12;;;;;;;7.97;4.22;;;;;;;6.75;100.00;100757.00;5287290;28;20020;-79
2022/11/28 02:16:21;;;;;;;6.85;4.72;;;;;;;6.76;100.00;100766.47;5287087;28;20032;-80
2022/11/28 02:19:15;;;;;;;5.82;3.85;;;;;;;6.78;100.00;100759.59;5287027;28;20028;-80
2022/11/28 02:21:55;;;;;;;8.02;4.15;;;;;;;6.80;100.00;100760.47;5287144;28;20158;-80
2022/11/28 02:24:39;;;;;;;6.45;4.95;;;;;;;6.81;100.00;100756.13;5287289;28;20051;-80
2022/11/28 02:27:40;;;;;;;7.00;3.72;;;;;;;6.85;100.00;100757.88;5287316;28;20452;-79
2022/11/28 02:30:18;;;;;;;5.32;4.07;;;;;;;6.83;100.00;100762.22;5287481;28;20031;-80
2022/11/28 02:32:58;;;;;;;8.15;4.53;;;;;;;6.83;100.00;100757.03;5287356;28;20067;-80
2022/11/28 02:35:51;;;;;;;10.43;4.55;;;;;;;6.81;100.00;100754.44;5287979;28;20113;-80
2022/11/28 02:38:41;;;;;;;7.38;4.20;;;;;;;6.79;100.00;100755.28;5293695;28;20060;-80
2022/11/28 02:41:33;;;;;;;5.70;4.00;;;;;;;6.73;100.00;100754.41;5286639;28;20028;-80
2022/11/28 02:44:14;;;;;;;6.55;4.60;;;;;;;6.70;100.00;100761.31;5286732;28;20082;-80
2022/11/28 02:46:56;;;;;;;5.32;3.83;;;;;;;6.67;100.00;100758.72;5286889;28;20035;-80
2022/11/28 02:49:49;;;;;;;7.95;3.97;;;;;;;6.64;100.00;100756.09;5286492;28;20032;-80
2022/11/28 02:52:31;;;;;;;5.63;4.10;;;;;;;6.61;100.00;100753.50;5286557;28;20102;-80
2022/11/28 02:55:04;;;;;;;7.72;4.10;;;;;;;6.57;100.00;100750.03;5286753;28;20032;-81
2022/11/28 02:57:37;;;;;;;6.68;4.07;;;;;;;6.56;100.00;100748.31;5286247;28;20029;-81
2022/11/28 03:00:33;;;;;;;8.77;4.10;;;;;;;6.55;100.00;100747.44;5286170;28;20029;-81
2022/11/28 03:03:27;;;;;;;7.85;4.43;;;;;;;6.53;100.00;100749.16;5286514;28;20028;-81
2022/11/28 03:06:20;;;;;;;8.05;4.00;;;;;;;6.52;100.00;100742.25;5285939;28;20132;-81
2022/11/28 03:09:00;;;;;;;7.68;4.20;;;;;;;6.53;100.00;100743.13;5285760;28;20071;-81
2022/11/28 03:12:02;;;;;;;7.60;4.53;;;;;;;6.52;100.00;100731.00;5284928;28;20052;-80
2022/11/28 03:14:57;;;;;;;7.73;4.80;;;;;;;6.53;100.00;100730.16;5285970;28;20028;-81
2022/11/28 03:17:40;;;;;;;6.90;4.28;;;;;;;6.52;100.00;100739.66;5284806;28;20660;-81
2022/11/28 03:20:26;;;;;;;6.40;4.05;;;;;;;6.51;100.00;100740.50;5285663;28;20024;-81
2022/11/28 03:23:25;;;;;;;9.18;5.05;;;;;;;6.54;100.00;100734.50;5284462;28;20553;-81
2022/11/28 03:26:04;;;;;;;9.27;4.75;;;;;;;6.51;100.00;100726.72;5285731;28;20451;-81
2022/11/28 03:28:44;;;;;;;8.27;4.43;;;;;;;6.50;100.00;100735.34;5285965;28;20056;-80
2022/11/28 03:31:36;;;;;;;6.60;4.60;;;;;;;6.50;100.00;100732.75;5284438;28;20523;-80
2022/11/28 03:34:12;;;;;;;9.30;4.97;;;;;;;6.49;100.00;100733.63;5286323;28;20028;-80
2022/11/28 03:36:52;;;;;;;8.68;4.90;;;;;;;6.49;100.00;100739.66;5284334;28;20135;-81
2022/11/28 03:39:29;;;;;;;8.25;4.40;;;;;;;6.49;100.00;100728.44;5288550;28;20078;-80
2022/11/28 03:42:09;;;;;;;6.75;4.47;;;;;;;6.50;100.00;100732.75;5290480;28;20071;-81
2022/11/28 03:44:49;;;;;;;5.55;4.10;;;;;;;6.50;100.00;100732.75;5285526;28;20028;-80
2022/11/28 03:47:25;;;;;;;8.90;4.40;;;;;;;6.48;100.00;100729.28;5285158;28;20537;-80
2022/11/28 03:50:04;;;;;;;8.10;4.78;;;;;;;6.47;100.00;100727.56;5284994;28;20427;-80
2022/11/28 03:52:42;;;;;;;8.38;4.85;;;;;;;6.48;100.00;100727.56;5284978;28;20046;-80
2022/11/28 03:55:21;;;;;;;8.70;4.60;;;;;;;6.43;100.00;100728.41;5285251;28;20032;-81
2022/11/28 03:58:14;;;;;;;5.97;4.13;;;;;;;6.42;100.00;100735.31;5284769;28;20024;-80
2022/11/28 04:00:56;;;;;;;8.57;4.00;;;;;;;6.41;100.00;100731.00;5284544;28;20036;-81
2022/11/28 04:03:36;;;;;;;5.32;4.03;;;;;;;6.43;100.00;100725.84;5285351;28;20405;-82
2022/11/28 04:06:46;;;;;;;6.30;4.35;;;;;;;6.42;100.00;100729.25;5285643;28;20368;-81
2022/11/28 04:09:31;;;;;;;8.43;4.60;;;;;;;6.39;100.00;100731.00;5285152;28;20105;-82
2022/11/28 04:12:10;;;;;;;9.20;4.43;;;;;;;6.41;100.00;100737.88;5284360;28;20021;-81
2022/11/28 04:14:52;;;;;;;8.55;5.05;;;;;;;6.40;100.00;100731.84;5285115;28;20332;-78
2022/11/28 04:17:37;;;;;;;8.15;5.00;;;;;;;6.41;100.00;100733.59;5283732;28;20029;-80
2022/11/28 04:20:16;;;;;;;7.90;5.22;;;;;;;6.40;100.00;100734.44;5292939;28;20032;-81
2022/11/28 04:22:54;;;;;;;7.10;5.38;;;;;;;6.41;100.00;100728.41;5297647;28;20049;-81
2022/11/28 04:25:28;;;;;;;11.50;6.45;;;;;;;6.42;100.00;100735.31;5287936;28;20032;-81
2022/11/28 04:28:05;;;;;;;7.63;5.22;;;;;;;6.39;100.00;100736.19;5286845;28;20025;-80
2022/11/28 04:30:39;;;;;;;9.27;5.35;;;;;;;6.38;100.00;100742.19;5289035;28;20039;-80
2022/11/28 04:33:15;;;;;;;8.43;5.70;;;;;;;6.41;100.00;100737.88;5292142;28;20173;-79
2022/11/28 04:35:50;;;;;;;5.60;4.45;;;;;;;6.39;100.00;100736.19;5294268;28;20025;-80
2022/11/28 04:38:24;;;;;;;6.90;5.10;;;;;;;6.38;100.00;100739.59;5300455;28;20059;-80
2022/11/28 04:41:05;;;;;;;6.78;5.45;;;;;;;6.38;100.00;100741.34;5306412;28;20091;-82
2022/11/28 04:43:53;;;;;;;6.72;5.88;;;;;;;6.36;100.00;100740.47;5307482;28;20032;-81
2022/11/28 04:46:39;;;;;;;8.55;6.07;;;;;;;6.36;100.00;100737.91;5296918;28;20032;-81
2022/11/28 04:49:11;;;;;;;9.05;5.40;;;;;;;6.36;100.00;100737.91;5287379;28;20044;-82
2022/11/28 04:52:01;;;;;;;7.17;5.57;;;;;;;6.37;100.00;100737.00;5286156;28;20079;-81
2022/11/28 04:54:45;;;;;;;7.25;5.47;;;;;;;6.36;100.00;100733.56;5284500;28;20452;-82
2022/11/28 04:57:21;;;;;;;8.73;5.85;;;;;;;6.37;100.00;100735.28;5284941;28;20024;-81
2022/11/28 04:59:55;;;;;;;8.75;5.90;;;;;;;6.37;100.00;100735.28;5284133;28;20104;-81
2022/11/28 05:02:28;;;;;;;6.90;5.22;;;;;;;6.38;100.00;100733.56;5283985;28;20028;-81
2022/11/28 05:04:59;;;;;;;7.35;5.78;;;;;;;6.38;100.00;100738.75;5283924;28;20036;-80
2022/11/28 05:07:30;;;;;;;10.30;6.37;;;;;;;6.38;100.00;100741.34;5283484;28;20472;-81
2022/11/28 05:10:02;;;;;;;7.90;5.90;;;;;;;6.35;100.00;100737.00;5283800;28;20533;-83
2022/11/28 05:12:34;;;;;;;8.10;6.17;;;;;;;6.38;100.00;100739.59;5265958;28;20034;-81
2022/11/28 05:15:06;;;;;;;8.27;6.07;;;;;;;6.39;100.00;100741.34;5283763;28;20028;-81
2022/11/28 05:17:37;;;;;;;9.45;6.38;;;;;;;6.40;100.00;100747.38;5282421;28;20086;-82
2022/11/28 05:20:09;;;;;;;7.97;6.80;;;;;;;6.40;100.00;100742.22;5284094;28;20033;-82
2022/11/28 05:22:40;;;;;;;9.63;6.93;;;;;;;6.40;100.00;100744.78;5283633;28;20055;-82
2022/11/28 05:25:12;;;;;;;8.03;7.20;;;;;;;6.42;100.00;100745.66;5284149;28;20098;-76
2022/11/28 05:27:43;;;;;;;8.43;6.90;;;;;;;6.41;100.00;100743.94;5283990;28;20082;-76
2022/11/28 05:30:15;;;;;;;8.37;7.40;;;;;;;6.41;100.00;100745.66;5283409;28;20108;-76
2022/11/28 05:32:46;;;;;;;9.73;7.43;;;;;;;6.42;100.00;100747.38;5283634;28;20024;-76
2022/11/28 05:35:17;;;;;;;11.13;8.43;;;;;;;6.42;100.00;100743.06;5286686;28;20040;-76
2022/11/28 05:37:49;;;;;;;8.90;8.00;;;;;;;6.44;100.00;100753.44;5286327;28;20036;-76
2022/11/28 05:40:20;;;;;;;9.70;8.27;;;;;;;6.42;100.00;100753.44;5287885;28;20107;-76
2022/11/28 05:42:52;;;;;;;8.77;7.87;;;;;;;6.43;100.00;100757.75;5287534;28;20460;-76
2022/11/28 05:45:23;;;;;;;9.37;7.83;;;;;;;6.44;100.00;100759.50;5286917;28;20036;-76
2022/11/28 05:47:54;;;;;;;9.30;8.40;;;;;;;6.45;100.00;100755.19;5288076;28;20356;-76
2022/11/28 05:50:26;;;;;;;11.43;8.60;;;;;;;6.46;100.00;100750.00;5287719;28;20029;-75
2022/11/28 05:52:57;;;;;;;10.00;8.90;;;;;;;6.45;100.00;100748.25;5287643;28;20086;-77
2022/11/28 05:55:28;;;;;;;10.87;8.00;;;;;;;6.47;100.00;100750.84;5287981;28;20036;-76
2022/11/28 05:58:00;;;;;;;8.97;8.03;;;;;;;6.45;100.00;100745.66;5287750;28;20060;-77
2022/11/28 06:00:31;;;;;;;11.57;8.50;;;;;;;6.48;100.00;100748.28;5287018;28;20024;-76
2022/11/28 06:03:04;;;;;;;12.63;9.13;;;;;;;6.49;100.00;100751.75;5285851;28;20029;-76
2022/11/28 06:05:39;;;;;;;10.13;8.50;;;;;;;6.49;100.00;100743.97;5287394;28;20029;-76
2022/11/28 06:08:11;;;;;;;11.18;8.98;;;;;;;6.49;100.00;100752.59;5287537;28;20034;-76
2022/11/28 06:10:42;;;;;;;9.82;8.52;;;;;;;6.49;100.00;100751.75;5287101;28;20032;-76
2022/11/28 06:13:14;;;;;;;12.57;9.30;;;;;;;6.48;100.00;100748.28;5286876;28;20450;-76
2022/11/28 06:15:45;;;;;;;11.20;8.97;;;;;;;6.50;100.00;100758.63;5287016;28;20060;-76
2022/11/28 06:18:17;;;;;;;11.70;10.07;;;;;;;6.49;100.00;100750.00;5285516;28;20055;-77
2022/11/28 06:20:48;;;;;;;10.83;9.73;;;;;;;6.50;100.00;100749.13;5285850;28;20033;-77
2022/11/28 06:23:19;;;;;;;10.60;9.30;;;;;;;6.51;100.00;100761.22;5287211;28;20182;-76
2022/11/28 06:25:51;;;;;;;14.60;9.63;;;;;;;6.52;100.00;100755.22;5285904;28;20115;-77
2022/11/28 06:28:46;;;;;;;10.50;9.50;;;;;;;6.54;100.00;100763.84;5287643;28;20025;-76
2022/11/28 06:31:23;;;;;;;11.90;9.68;;;;;;;6.52;100.00;100775.03;5281100;28;20506;-76
2022/11/28 06:33:56;;;;;;;11.25;10.07;;;;;;;6.52;100.00;100765.56;5286520;28;20025;-76
2022/11/28 06:36:29;;;;;;;;;;;;;;;6.53;100.00;100767.28;5287418;28;20031;-76
2022/11/28 06:39:00;;;;;;;;;;;;;;;6.53;100.00;100764.69;5285444;28;19912;-75
2022/11/28 06:41:32;;;;;;;11.25;9.73;;;;;;;6.52;100.00;100770.75;5285392;28;19916;-76
2022/11/28 06:44:03;;;;;;;12.77;9.80;;;;;;;6.56;100.00;100772.47;5286570;28;20460;-76
2022/11/28 06:46:34;;;;;;;14.67;11.63;;;;;;;6.54;100.00;100761.25;5289242;28;20028;-77
2022/11/28 06:49:06;;;;;;;12.63;11.33;;;;;;;6.55;100.00;100767.28;5286202;28;20033;-77
2022/11/28 06:51:41;;;;;;;13.47;11.90;;;;;;;6.53;100.00;100759.50;5286125;28;20468;-77
2022/11/28 06:54:13;;;;;;;12.93;10.85;;;;;;;6.55;100.00;100768.16;5286023;28;20468;-77
2022/11/28 06:56:44;;;;;;;15.07;11.73;;;;;;;6.59;100.00;100768.19;5284779;28;20081;-77
2022/11/28 06:59:15;;;;;;;12.90;11.13;;;;;;;6.59;100.00;100773.38;5284534;28;20037;-76
2022/11/28 07:01:48;;;;;;;13.43;11.40;;;;;;;6.60;100.00;100769.88;5286059;28;20367;-75
2022/11/28 07:04:19;;;;;;;12.95;10.73;;;;;;;6.60;100.00;100772.47;5286046;28;20071;-76
2022/11/28 07:06:50;;;;;;;13.10;11.13;;;;;;;6.61;100.00;100775.06;5285246;28;20042;-77
2022/11/28 07:09:22;;;;;;;12.63;11.33;;;;;;;6.62;100.00;100778.53;5285335;28;20100;-75
2022/11/28 07:11:54;;;;;;;12.07;10.80;;;;;;;6.62;100.00;100779.41;5285266;28;20037;-75
2022/11/28 07:14:25;;;;;;;12.23;10.97;;;;;;;6.65;100.00;100784.59;5284232;28;20037;-75
2022/11/28 07:16:56;;;;;;;13.53;12.23;;;;;;;6.64;100.00;100782.88;5283932;28;20102;-75
2022/11/28 07:19:28;;;;;;;12.73;11.43;;;;;;;6.65;100.00;100781.13;5285253;28;20060;-76
2022/11/28 07:21:59;;;;;;;13.57;12.07;;;;;;;6.67;100.00;100780.28;5285249;28;20471;-76
2022/11/28 07:24:31;;;;;;;15.83;13.43;;;;;;;6.68;100.00;100782.03;5285087;28;20045;-76
2022/11/28 07:27:03;;;;;;;14.05;12.55;;;;;;;6.70;100.00;100787.22;5285311;28;20094;-77
2022/11/28 07:29:37;;;;;;;14.37;12.77;;;;;;;6.70;100.00;100785.47;5285664;28;20028;-76
2022/11/28 07:32:08;;;;;;;13.68;12.27;;;;;;;6.71;100.00;100786.34;5283817;28;20059;-76
2022/11/28 07:34:41;;;;;;;13.13;11.80;;;;;;;6.73;100.00;100787.22;5267030;28;20055;-76
2022/11/28 07:37:12;;;;;;;13.50;11.90;;;;;;;6.73;100.00;100789.81;5284919;28;20032;-76
2022/11/28 07:39:44;;;;;;;15.10;13.53;;;;;;;6.73;100.00;100795.84;5283713;28;20433;-76
2022/11/28 07:42:15;;;;;;;12.33;11.03;;;;;;;6.73;100.00;100793.25;5287985;28;20044;-76
2022/11/28 07:44:47;;;;;;;14.17;12.60;;;;;;;6.73;100.00;100797.59;5299590;28;20062;-76
2022/11/28 07:47:19;;;;;;;15.23;12.63;;;;;;;6.75;100.00;100799.31;5298347;28;20060;-77
2022/11/28 07:49:50;;;;;;;13.40;11.50;;;;;;;6.77;100.00;100801.91;5288324;28;20082;-76
2022/11/28 07:52:22;;;;;;;14.97;11.50;;;;;;;6.78;100.00;100807.94;5285282;28;20063;-76
2022/11/28 07:54:53;;;;;;;16.77;12.70;;;;;;;6.79;100.00;100810.53;5284444;28;20094;-75
2022/11/28 07:57:24;;;;;;;14.53;13.07;;;;;;;6.80;100.00;100814.88;5283730;28;20036;-76
2022/11/28 07:59:56;;;;;;;13.63;12.20;;;;;;;6.81;100.00;100816.63;5284922;28;20055;-76
2022/11/28 08:02:31;;;;;;;14.23;11.87;;;;;;;6.84;100.00;100820.91;5283169;28;20460;-76
2022/11/28 08:05:02;;;;;;;14.13;11.70;;;;;;;6.84;100.00;100818.31;5284936;28;20035;-76
2022/11/28 08:07:33;;;;;;;15.87;12.00;;;;;;;6.87;100.00;100815.75;5285200;28;20467;-76
2022/11/28 08:10:06;;;;;;;12.87;11.57;;;;;;;6.87;100.00;100819.19;5285135;28;20033;-76
2022/11/28 08:12:37;;;;;;;14.88;12.27;;;;;;;6.89;100.00;100820.09;5285645;28;20029;-76
2022/11/28 08:15:09;;;;;;;13.77;12.27;;;;;;;6.90;100.00;100824.38;5285012;28;20051;-76
2022/11/28 08:17:40;;;;;;;12.43;11.03;;;;;;;6.91;100.00;100818.34;5285198;28;20491;-76
2022/11/28 08:20:12;;;;;;;13.27;11.80;;;;;;;6.94;100.00;100820.97;5285404;28;20487;-77
2022/11/28 08:22:43;;;;;;;13.53;12.13;;;;;;;6.98;100.00;100824.41;5284403;28;20032;-76
2022/11/28 08:25:14;;;;;;;13.17;11.63;;;;;;;7.00;100.00;100825.28;5284954;28;20037;-75
2022/11/28 08:27:46;;;;;;;14.17;12.77;;;;;;;7.01;100.00;100826.16;5284647;28;20380;-74
2022/11/28 08:30:17;;;;;;;12.77;11.47;;;;;;;7.03;100.00;100824.44;5284594;28;20024;-76
2022/11/28 08:32:49;;;;;;;12.60;11.23;;;;;;;7.06;100.00;100821.84;5284446;28;20128;-75
2022/11/28 08:35:20;;;;;;;14.20;12.30;;;;;;;7.08;100.00;100833.06;5283567;28;20111;-75
2022/11/28 08:37:52;;;;;;;15.53;12.37;;;;;;;7.10;100.00;100826.19;5283979;28;20037;-76
2022/11/28 08:40:23;;;;;;;14.33;11.87;;;;;;;7.11;100.00;100833.09;5283787;28;20078;-76
2022/11/28 08:42:56;;;;;;;13.70;11.37;;;;;;;7.12;100.00;100838.28;5284498;28;20039;-76
2022/11/28 08:45:28;;;;;;;14.45;11.90;;;;;;;7.11;100.00;100838.28;5283866;28;20036;-76
2022/11/28 08:47:59;;;;;;;13.97;11.53;;;;;;;7.16;100.00;100841.72;5284177;28;20065;-76
2022/11/28 08:50:31;;;;;;;12.90;11.17;;;;;;;7.16;100.00;100844.31;5283279;28;20032;-76
2022/11/28 08:53:02;;;;;;;14.83;11.73;;;;;;;7.15;100.00;100841.72;5284484;28;20429;-76
2022/11/28 08:55:33;;;;;;;12.37;11.07;;;;;;;7.16;100.00;100843.47;5283621;28;20396;-76
2022/11/28 08:58:05;;;;;;;14.23;12.10;;;;;;;7.15;100.00;100834.84;5283925;28;20476;-76
2022/11/28 09:00:36;;;;;;;15.80;13.20;;;;;;;7.18;100.00;100833.97;5284284;28;20044;-76
2022/11/28 09:03:14;;;;;;;14.20;12.13;;;;;;;7.21;100.00;100839.16;5282658;28;20460;-76
2022/11/28 09:05:46;;;;;;;14.57;11.70;;;;;;;7.22;100.00;100833.97;5283904;28;20040;-76
2022/11/28 09:08:20;;;;;;;14.73;12.05;;;;;;;7.24;100.00;100832.25;5285915;28;20024;-76
2022/11/28 09:10:52;;;;;;;14.52;11.88;;;;;;;7.26;100.00;100838.31;5288018;28;20028;-75
2022/11/28 09:13:23;;;;;;;16.03;12.03;;;;;;;7.27;100.00;100846.94;5287406;28;20093;-76
2022/11/28 09:15:54;;;;;;;18.07;13.80;;;;;;;7.27;100.00;100845.22;5287735;28;20064;-76
2022/11/28 09:18:26;;;;;;;17.10;12.93;;;;;;;7.27;100.00;100853.00;5287481;28;20508;-77
2022/11/28 09:20:59;;;;;;;15.27;12.63;;;;;;;7.29;100.00;100858.19;5287987;28;20066;-76
2022/11/28 09:23:30;;;;;;;14.68;12.07;;;;;;;7.31;100.00;100859.06;5287172;28;20056;-76
2022/11/28 09:26:07;;;;;;;13.07;11.67;;;;;;;7.35;100.00;100853.00;5287586;28;20036;-77
2022/11/28 09:28:39;;;;;;;14.95;11.88;;;;;;;7.35;100.00;100858.19;5287897;28;20036;-76
2022/11/28 09:31:13;;;;;;;13.13;11.13;;;;;;;7.38;100.00;100850.44;5287404;28;20456;-77
2022/11/28 09:33:47;;;;;;;12.48;10.90;;;;;;;7.39;100.00;100851.28;5287360;28;20081;-77
2022/11/28 09:36:20;;;;;;;13.77;12.30;;;;;;;7.41;100.00;100855.63;5287573;28;20027;-76
2022/11/28 09:38:51;;;;;;;15.18;11.52;;;;;;;7.44;100.00;100852.19;5287344;28;20084;-77
2022/11/28 09:41:47;;;;;;;15.90;11.70;;;;;;;7.48;100.00;100852.16;5287134;28;20524;-77
2022/11/28 09:44:25;;;;;;;13.95;11.38;;;;;;;7.53;100.00;100859.94;5286037;28;20135;-76
2022/11/28 09:47:02;;;;;;;13.75;11.30;;;;;;;7.59;100.00;100859.09;5286799;28;20047;-76
2022/11/28 09:49:43;;;;;;;12.77;11.45;;;;;;;7.64;100.00;100863.41;5285810;28;20029;-77
2022/11/28 09:52:31;;;;;;;11.77;10.30;;;;;;;7.71;100.00;100860.81;5287457;28;20456;-76
2022/11/28 09:55:17;;;;;;;15.80;11.55;;;;;;;7.73;100.00;100856.50;5287249;28;20032;-76
2022/11/28 09:57:51;;;;;;;14.80;11.95;;;;;;;7.74;100.00;100861.69;5287226;28;20039;-76
2022/11/28 10:00:33;;;;;;;12.32;11.02;;;;;;;7.75;100.00;100870.34;5287107;28;20105;-77
2022/11/28 10:03:24;;;;;;;13.77;12.07;;;;;;;7.75;100.00;100867.75;5287176;28;20032;-77
2022/11/28 10:06:13;;;;;;;13.30;11.00;;;;;;;7.83;100.00;100860.84;5286956;28;20024;-76
2022/11/28 10:08:58;;;;;;;15.45;11.98;;;;;;;7.81;100.00;100859.97;5286799;28;20108;-77
2022/11/28 10:11:47;;;;;;;15.38;12.43;;;;;;;7.83;100.00;100861.69;5286817;28;20108;-77
2022/11/28 10:14:48;;;;;;;14.93;12.73;;;;;;;7.89;100.00;100860.84;5287000;28;20123;-77
2022/11/28 10:17:20;;;;;;;16.20;12.65;;;;;;;7.93;100.00;100859.94;5287755;28;20158;-77
2022/11/28 10:20:17;;;;;;;16.03;12.63;;;;;;;8.05;100.00;100861.69;5287424;28;20526;-77
2022/11/28 10:22:58;;;;;;;14.35;12.38;;;;;;;8.10;100.00;100861.66;5277494;28;20040;-77
2022/11/28 10:25:35;;;;;;;16.17;14.35;;;;;;;8.13;100.00;100857.34;5286631;28;20049;-77
2022/11/28 10:28:15;;;;;;;15.27;12.98;;;;;;;8.16;100.00;100864.25;5286965;28;20406;-77
2022/11/28 10:30:53;;;;;;;17.10;13.13;;;;;;;8.14;100.00;100872.03;5288252;28;20495;-76
2022/11/28 10:33:42;;;;;;;15.07;13.13;;;;;;;8.13;100.00;100867.72;5287212;28;20036;-77
2022/11/28 10:36:49;;;;;;;15.23;12.50;;;;;;;8.26;100.00;100860.78;5287035;28;20052;-77
2022/11/28 10:39:21;;;;;;;15.88;13.38;;;;;;;8.28;100.00;100851.25;5260733;28;20044;-76
2022/11/28 10:42:13;;;;;;;14.97;13.33;;;;;;;8.39;100.00;100854.69;5286659;28;20028;-77
2022/11/28 10:45:08;;;;;;;14.95;13.32;;;;;;;8.46;100.00;100865.09;5286811;28;20042;-77
2022/11/28 10:48:16;;;;;;;14.80;13.25;;;;;;;8.42;100.00;100863.34;5286788;28;20036;-77
2022/11/28 10:50:52;;;;;;;16.08;14.43;;;;;;;8.25;100.00;100861.66;5286595;28;20029;-77
2022/11/28 10:53:47;;;;;;;16.90;13.52;;;;;;;8.24;100.00;100875.47;5286444;28;20032;-76
2022/11/28 10:56:38;;;;;;;17.83;14.73;;;;;;;8.26;100.00;100867.69;5288488;28;20033;-76
2022/11/28 10:59:16;;;;;;;16.38;14.68;;;;;;;8.26;100.00;100868.59;5285706;28;20039;-75
2022/11/28 11:01:49;;;;;;;18.63;15.65;;;;;;;8.25;100.00;100881.56;5300472;28;20067;-76
2022/11/28 11:04:25;;;;;;;17.67;15.27;;;;;;;8.26;100.00;100876.38;5288731;28;20052;-75
2022/11/28 11:07:17;;;;;;;22.88;16.77;;;;;;;8.29;100.00;100868.56;5287271;28;20032;-77
2022/11/28 11:09:48;;;;;;;19.35;17.20;;;;;;;8.24;100.00;100880.69;5286481;28;20388;-76
2022/11/28 11:12:29;;;;;;;22.20;17.27;;;;;;;8.27;100.00;100872.88;5284495;28;20033;-76
2022/11/28 11:15:15;;;;;;;19.77;17.13;;;;;;;8.38;100.00;100860.75;5287140;28;20020;-77
2022/11/28 11:17:49;;;;;;;20.65;17.60;;;;;;;8.37;100.00;100861.63;5301822;28;20052;-77
2022/11/28 11:20:26;;;;;;;21.83;18.35;;;;;;;8.38;100.00;100865.94;5301681;28;20028;-75
2022/11/28 11:23:12;;;;;;;21.95;19.65;;;;;;;8.38;100.00;100865.94;5291494;28;20164;-76
2022/11/28 11:26:02;;;;;;;22.90;19.08;;;;;;;8.42;100.00;100860.72;5290472;28;20054;-77
2022/11/28 11:28:45;;;;;;;21.80;19.08;;;;;;;8.37;100.00;100864.22;5287615;28;20033;-77
2022/11/28 11:31:18;;;;;;;23.55;19.50;;;;;;;8.36;100.00;100859.88;5285478;28;20039;-77
2022/11/28 11:33:59;;;;;;;27.13;21.02;;;;;;;8.35;100.00;100863.34;5285550;28;20384;-76
2022/11/28 11:36:34;;;;;;;24.70;20.98;;;;;;;8.36;100.00;100857.28;5285913;28;20032;-77
2022/11/28 11:39:11;;;;;;;27.75;21.33;;;;;;;8.39;100.00;100856.44;5285244;28;20487;-77
2022/11/28 11:41:48;;;;;;;30.00;22.98;;;;;;;8.37;100.00;100856.44;5286090;28;20028;-76
2022/11/28 11:44:28;;;;;;;27.25;22.00;;;;;;;8.44;100.00;100856.47;5284204;28;20040;-77
2022/11/28 11:47:04;;;;;;;28.92;22.15;;;;;;;8.41;100.00;100852.09;5285020;28;20089;-77
2022/11/28 11:49:40;;;;;;;27.23;22.30;;;;;;;8.41;100.00;100852.09;5285097;28;20098;-77
2022/11/28 11:52:12;;;;;;;32.55;22.88;;;;;;;8.45;100.00;100852.97;5285518;28;20098;-76
2022/11/28 11:54:46;;;;;;;32.83;24.03;;;;;;;8.49;100.00;100855.56;5285745;28;20036;-76
2022/11/28 11:57:21;;;;;;;30.63;23.73;;;;;;;8.48;100.00;100861.59;5284098;28;20120;-77
2022/11/28 11:59:56;;;;;;;40.95;25.52;;;;;;;8.47;100.00;100864.22;5284491;28;20349;-76